Time;durP1;ratioP1;P1;durP2;ratioP2;P2;SDS_P1;SDS_P2;PMS_P1;PMS_P2;Temp;Humidity;BMP_temperature;BMP_pressure;BME280_temperature;BME280_humidity;BME280_pressure;Samples;Min_cycle;Max_cycle;Signal;HPM_P1;HPM_P2
2021/10/10 00:00:41;;;;;;;11.40;6.12;;;;;;;;;;143732;566;45021;-54
2021/10/10 00:03:08;;;;;;;10.82;4.80;;;;;;;;;;143728;564;46043;-53
2021/10/10 00:05:35;;;;;;;12.43;5.57;;;;;;;;;;143730;592;46020;-54
2021/10/10 00:08:02;;;;;;;11.93;5.43;;;;;;;;;;143729;591;46021;-54
2021/10/10 00:10:31;;;;;;;18.92;8.70;;;;;;;;;;143732;589;45021;-53
2021/10/10 00:13:01;;;;;;;10.50;5.45;;;;;;;;;;143727;570;46910;-53
2021/10/10 00:15:28;;;;;;;15.90;8.25;;;;;;;;;;143730;576;46021;-54
2021/10/10 00:17:55;;;;;;;15.18;7.97;;;;;;;;;;143728;583;46014;-53
2021/10/10 00:20:22;;;;;;;18.77;8.93;;;;;;;;;;143730;610;46020;-54
2021/10/10 00:22:49;;;;;;;12.00;6.60;;;;;;;;;;143728;601;46022;-54
2021/10/10 00:25:16;;;;;;;10.20;5.55;;;;;;;;;;143732;607;46020;-54
2021/10/10 00:27:43;;;;;;;9.65;6.03;;;;;;;;;;143729;630;45020;-54
2021/10/10 00:30:11;;;;;;;20.42;9.48;;;;;;;;;;143731;607;46020;-54
2021/10/10 00:32:38;;;;;;;15.82;8.15;;;;;;;;;;143728;594;46052;-53
2021/10/10 00:35:06;;;;;;;14.80;7.32;;;;;;;;;;143731;571;46020;-54
2021/10/10 00:37:33;;;;;;;12.15;6.30;;;;;;;;;;143728;646;46020;-54
2021/10/10 00:40:00;;;;;;;8.35;4.95;;;;;;;;;;143729;636;46021;-53
2021/10/10 00:42:27;;;;;;;6.90;4.60;;;;;;;;;;143728;627;46022;-54
2021/10/10 00:44:54;;;;;;;7.22;4.60;;;;;;;;;;143725;594;46020;-54
2021/10/10 00:47:21;;;;;;;8.77;4.00;;;;;;;;;;143730;611;45021;-54
2021/10/10 00:49:48;;;;;;;9.30;4.85;;;;;;;;;;143732;599;45020;-53
2021/10/10 00:52:17;;;;;;;8.13;4.78;;;;;;;;;;143728;564;46022;-53
2021/10/10 00:54:48;;;;;;;7.43;4.85;;;;;;;;;;143730;566;46020;-53
2021/10/10 00:57:16;;;;;;;7.97;4.47;;;;;;;;;;143729;596;46012;-54
2021/10/10 00:59:45;;;;;;;6.25;4.82;;;;;;;;;;143735;644;45021;-53
2021/10/10 01:02:13;;;;;;;6.62;4.43;;;;;;;;;;143726;632;46023;-54
2021/10/10 01:04:41;;;;;;;7.62;4.32;;;;;;;;;;143732;590;46020;-53
2021/10/10 01:07:08;;;;;;;5.07;4.10;;;;;;;;;;143729;596;46012;-53
2021/10/10 01:09:36;;;;;;;6.35;4.45;;;;;;;;;;143735;569;46021;-54
2021/10/10 01:12:07;;;;;;;7.45;4.12;;;;;;;;;;143732;645;46022;-54
2021/10/10 01:14:35;;;;;;;7.75;4.43;;;;;;;;;;143729;609;46020;-54
2021/10/10 01:17:03;;;;;;;7.20;4.25;;;;;;;;;;143733;623;46012;-53
2021/10/10 01:19:35;;;;;;;7.18;4.70;;;;;;;;;;143732;565;45021;-54
2021/10/10 01:22:03;;;;;;;6.68;4.40;;;;;;;;;;143727;589;46022;-54
2021/10/10 01:24:30;;;;;;;7.90;4.47;;;;;;;;;;143731;647;46020;-53
2021/10/10 01:26:57;;;;;;;10.30;4.65;;;;;;;;;;143731;571;45021;-53
2021/10/10 01:29:24;;;;;;;7.72;4.90;;;;;;;;;;143731;570;46020;-53
2021/10/10 01:31:51;;;;;;;13.02;5.32;;;;;;;;;;143729;613;46048;-54
2021/10/10 01:34:19;;;;;;;10.20;5.87;;;;;;;;;;143732;566;46020;-53
2021/10/10 01:36:46;;;;;;;8.07;5.75;;;;;;;;;;143731;601;46012;-54
2021/10/10 01:39:13;;;;;;;10.27;6.30;;;;;;;;;;143730;632;46010;-54
2021/10/10 01:41:40;;;;;;;10.32;6.18;;;;;;;;;;143728;615;46020;-54
2021/10/10 01:44:15;;;;;;;8.40;5.60;;;;;;;;;;143729;569;46020;-53
2021/10/10 01:46:43;;;;;;;8.45;5.68;;;;;;;;;;143731;574;45021;-54
2021/10/10 01:49:11;;;;;;;8.82;6.25;;;;;;;;;;143730;585;46020;-54
2021/10/10 01:51:38;;;;;;;9.68;7.55;;;;;;;;;;143728;619;46022;-54
2021/10/10 01:54:05;;;;;;;8.77;5.60;;;;;;;;;;143729;611;46021;-54
2021/10/10 01:56:32;;;;;;;10.48;6.20;;;;;;;;;;143731;601;45020;-53
2021/10/10 01:58:59;;;;;;;9.85;5.70;;;;;;;;;;143732;581;46020;-54
2021/10/10 02:01:26;;;;;;;10.43;6.37;;;;;;;;;;143727;570;46023;-54
2021/10/10 02:03:53;;;;;;;7.35;5.12;;;;;;;;;;143730;646;46020;-54
2021/10/10 02:06:20;;;;;;;8.60;5.37;;;;;;;;;;143730;591;45020;-54
2021/10/10 02:08:47;;;;;;;11.80;5.97;;;;;;;;;;143731;614;46021;-54
2021/10/10 02:11:14;;;;;;;11.60;6.00;;;;;;;;;;143726;609;46022;-54
2021/10/10 02:13:41;;;;;;;10.77;6.18;;;;;;;;;;143728;641;46020;-53
2021/10/10 02:16:08;;;;;;;8.20;5.45;;;;;;;;;;143728;690;46012;-53
2021/10/10 02:18:35;;;;;;;9.52;5.55;;;;;;;;;;143730;609;46020;-54
2021/10/10 02:21:03;;;;;;;6.80;4.62;;;;;;;;;;143727;582;46022;-54
2021/10/10 02:23:30;;;;;;;8.13;4.70;;;;;;;;;;143732;627;46021;-53
2021/10/10 02:25:57;;;;;;;6.70;4.53;;;;;;;;;;143730;565;46012;-54
2021/10/10 02:28:24;;;;;;;7.82;5.22;;;;;;;;;;143736;608;46020;-54
2021/10/10 02:30:52;;;;;;;9.68;6.35;;;;;;;;;;143727;569;46052;-54
2021/10/10 02:33:19;;;;;;;10.85;7.75;;;;;;;;;;143729;623;46020;-54
2021/10/10 02:35:46;;;;;;;13.88;10.00;;;;;;;;;;143729;564;45020;-54
2021/10/10 02:38:14;;;;;;;10.63;7.37;;;;;;;;;;143732;581;46021;-54
2021/10/10 02:40:41;;;;;;;13.82;9.73;;;;;;;;;;143726;658;46022;-54
2021/10/10 02:43:08;;;;;;;16.20;10.82;;;;;;;;;;143726;577;47020;-53
2021/10/10 02:45:36;;;;;;;9.65;6.53;;;;;;;;;;143727;584;46013;-54
2021/10/10 02:48:04;;;;;;;8.90;6.22;;;;;;;;;;143735;595;45028;-54
2021/10/10 02:50:31;;;;;;;9.32;7.05;;;;;;;;;;143729;625;46022;-53
2021/10/10 02:52:59;;;;;;;10.70;7.22;;;;;;;;;;143727;592;46026;-54
2021/10/10 02:55:26;;;;;;;13.10;9.10;;;;;;;;;;143735;726;45020;-54
2021/10/10 02:57:53;;;;;;;10.60;7.87;;;;;;;;;;143733;644;46020;-54
2021/10/10 03:00:20;;;;;;;9.32;6.78;;;;;;;;;;143728;643;46022;-54
2021/10/10 03:02:47;;;;;;;11.63;7.15;;;;;;;;;;143729;601;46020;-54
2021/10/10 03:05:14;;;;;;;10.93;6.32;;;;;;;;;;143730;572;46012;-54
2021/10/10 03:07:41;;;;;;;16.42;8.52;;;;;;;;;;143733;647;45027;-54
2021/10/10 03:10:08;;;;;;;16.83;11.98;;;;;;;;;;143728;569;46023;-53
2021/10/10 03:12:35;;;;;;;18.42;12.80;;;;;;;;;;143727;564;46020;-54
2021/10/10 03:15:03;;;;;;;20.00;13.00;;;;;;;;;;143729;627;46012;-54
2021/10/10 03:17:30;;;;;;;13.13;8.60;;;;;;;;;;143732;631;45020;-54
2021/10/10 03:19:57;;;;;;;18.12;10.98;;;;;;;;;;143728;599;46022;-53
2021/10/10 03:22:24;;;;;;;25.73;15.63;;;;;;;;;;143729;576;46021;-54
2021/10/10 03:24:52;;;;;;;14.27;9.48;;;;;;;;;;143728;591;46012;-54
2021/10/10 03:27:24;;;;;;;15.75;10.48;;;;;;;;;;143732;588;45021;-54
2021/10/10 03:29:53;;;;;;;17.67;13.93;;;;;;;;;;143728;564;46021;-54
2021/10/10 03:32:20;;;;;;;18.95;13.82;;;;;;;;;;143727;624;46020;-54
2021/10/10 03:34:47;;;;;;;14.38;10.48;;;;;;;;;;143730;622;45026;-54
2021/10/10 03:37:14;;;;;;;14.95;11.63;;;;;;;;;;143732;599;46011;-54
2021/10/10 03:39:41;;;;;;;16.60;11.52;;;;;;;;;;143728;668;46023;-53
2021/10/10 03:42:08;;;;;;;19.52;13.45;;;;;;;;;;143731;564;46020;-54
2021/10/10 03:44:36;;;;;;;18.77;14.05;;;;;;;;;;143729;616;46013;-54
2021/10/10 03:47:03;;;;;;;16.75;11.10;;;;;;;;;;143733;646;45021;-54
2021/10/10 03:49:30;;;;;;;12.57;7.90;;;;;;;;;;143730;577;46022;-54
2021/10/10 03:51:57;;;;;;;18.17;10.23;;;;;;;;;;143733;741;46021;-55
2021/10/10 03:57:10;;;;;;;12.13;7.72;;;;;;;;;;143730;597;46020;-54
2021/10/10 03:59:37;;;;;;;10.80;7.15;;;;;;;;;;143729;649;46022;-54
2021/10/10 04:02:06;;;;;;;10.48;7.22;;;;;;;;;;143729;590;46020;-53
2021/10/10 04:04:36;;;;;;;10.50;7.40;;;;;;;;;;143725;620;46020;-53
2021/10/10 04:07:03;;;;;;;12.80;7.43;;;;;;;;;;143733;576;45021;-54
2021/10/10 04:09:30;;;;;;;11.00;6.90;;;;;;;;;;143729;598;46023;-53
2021/10/10 04:11:57;;;;;;;9.73;6.70;;;;;;;;;;143729;566;47012;-55
2021/10/10 04:14:24;;;;;;;12.15;7.12;;;;;;;;;;143728;625;46012;-54
2021/10/10 04:16:52;;;;;;;11.15;7.40;;;;;;;;;;143731;595;46021;-53
2021/10/10 04:19:19;;;;;;;11.82;7.32;;;;;;;;;;143727;631;46022;-54
2021/10/10 04:21:46;;;;;;;12.45;7.37;;;;;;;;;;143726;645;46918;-53
2021/10/10 04:24:13;;;;;;;11.18;6.85;;;;;;;;;;143729;591;45911;-54
2021/10/10 04:26:40;;;;;;;11.05;6.70;;;;;;;;;;143732;572;46012;-53
2021/10/10 04:29:07;;;;;;;9.52;7.12;;;;;;;;;;143730;580;46022;-54
2021/10/10 04:31:34;;;;;;;11.88;7.95;;;;;;;;;;143727;616;46020;-54
2021/10/10 04:34:01;;;;;;;13.25;8.70;;;;;;;;;;143732;629;45020;-54
2021/10/10 04:36:28;;;;;;;10.38;8.25;;;;;;;;;;143733;613;46021;-54
2021/10/10 04:38:55;;;;;;;11.77;8.35;;;;;;;;;;143728;604;47020;-54
2021/10/10 04:41:22;;;;;;;11.32;8.00;;;;;;;;;;143730;587;46020;-54
2021/10/10 04:43:49;;;;;;;14.98;8.25;;;;;;;;;;143734;565;46012;-54
2021/10/10 04:46:16;;;;;;;12.77;9.85;;;;;;;;;;143729;579;46021;-54
2021/10/10 04:48:43;;;;;;;12.05;8.80;;;;;;;;;;143729;640;46022;-54
2021/10/10 04:51:10;;;;;;;11.12;7.20;;;;;;;;;;143729;639;46020;-54
2021/10/10 04:53:37;;;;;;;12.95;8.30;;;;;;;;;;143731;567;45021;-54
2021/10/10 04:56:04;;;;;;;11.32;8.80;;;;;;;;;;143733;608;45020;-54
2021/10/10 04:58:31;;;;;;;9.90;6.65;;;;;;;;;;143729;601;46022;-54
2021/10/10 05:00:58;;;;;;;10.45;6.57;;;;;;;;;;143730;586;46020;-54
2021/10/10 05:03:25;;;;;;;9.55;6.35;;;;;;;;;;143733;607;45020;-54
2021/10/10 05:05:52;;;;;;;8.25;5.70;;;;;;;;;;143733;638;46010;-54
2021/10/10 05:08:19;;;;;;;9.65;7.05;;;;;;;;;;143730;572;46023;-54
2021/10/10 05:10:47;;;;;;;10.02;6.65;;;;;;;;;;143734;641;46020;-54
2021/10/10 05:13:14;;;;;;;10.20;6.62;;;;;;;;;;143730;573;46013;-54
2021/10/10 05:15:41;;;;;;;8.05;5.75;;;;;;;;;;143734;616;45028;-54
2021/10/10 05:18:08;;;;;;;11.32;5.57;;;;;;;;;;143729;600;47020;-53
2021/10/10 05:20:35;;;;;;;9.57;6.18;;;;;;;;;;143734;570;46021;-54
2021/10/10 05:23:02;;;;;;;7.75;5.65;;;;;;;;;;143729;622;46021;-53
2021/10/10 05:25:29;;;;;;;10.50;6.25;;;;;;;;;;143732;594;46020;-54
2021/10/10 05:27:56;;;;;;;12.40;6.75;;;;;;;;;;143729;573;46022;-54
2021/10/10 05:30:23;;;;;;;10.35;6.47;;;;;;;;;;143734;569;46020;-54
2021/10/10 05:32:50;;;;;;;16.50;6.10;;;;;;;;;;143734;569;45020;-54
2021/10/10 05:35:17;;;;;;;14.15;5.90;;;;;;;;;;143737;615;45027;-54
2021/10/10 05:37:44;;;;;;;8.52;5.30;;;;;;;;;;143729;685;46043;-54
2021/10/10 05:40:12;;;;;;;14.52;6.85;;;;;;;;;;143734;572;46020;-54
2021/10/10 05:42:39;;;;;;;12.70;5.97;;;;;;;;;;143730;601;46012;-54
2021/10/10 05:45:07;;;;;;;8.93;5.72;;;;;;;;;;143733;601;46021;-54
2021/10/10 05:47:34;;;;;;;8.95;5.47;;;;;;;;;;143729;565;46038;-54
2021/10/10 05:50:01;;;;;;;8.60;4.90;;;;;;;;;;143727;605;46021;-54
2021/10/10 05:52:28;;;;;;;8.55;5.00;;;;;;;;;;143733;652;46012;-54
2021/10/10 05:54:55;;;;;;;7.07;5.03;;;;;;;;;;143733;586;46020;-53
2021/10/10 05:57:26;;;;;;;11.60;5.70;;;;;;;;;;143729;564;46022;-54
2021/10/10 05:59:56;;;;;;;8.52;4.70;;;;;;;;;;143728;715;46021;-54
2021/10/10 06:02:23;;;;;;;8.38;5.30;;;;;;;;;;143732;573;45020;-54
2021/10/10 06:04:50;;;;;;;7.00;4.85;;;;;;;;;;143732;583;46020;-54
2021/10/10 06:07:17;;;;;;;8.82;5.12;;;;;;;;;;143729;659;46023;-54
2021/10/10 06:09:44;;;;;;;9.02;5.07;;;;;;;;;;143727;609;46020;-54
2021/10/10 06:12:11;;;;;;;9.70;5.07;;;;;;;;;;143730;749;46012;-54
2021/10/10 06:14:38;;;;;;;11.95;5.72;;;;;;;;;;143733;632;46021;-53
2021/10/10 06:17:06;;;;;;;8.15;5.30;;;;;;;;;;143727;613;46022;-55
2021/10/10 06:19:36;;;;;;;8.15;4.97;;;;;;;;;;143727;626;46020;-54
2021/10/10 06:22:03;;;;;;;8.65;5.30;;;;;;;;;;143733;773;45021;-53
2021/10/10 06:24:30;;;;;;;8.23;5.60;;;;;;;;;;143734;668;46020;-55
2021/10/10 06:26:57;;;;;;;8.05;5.35;;;;;;;;;;143729;619;46051;-54
2021/10/10 06:29:25;;;;;;;10.70;5.93;;;;;;;;;;143729;572;46021;-54
2021/10/10 06:31:52;;;;;;;13.62;6.32;;;;;;;;;;143730;614;46012;-55
2021/10/10 06:34:19;;;;;;;23.42;13.82;;;;;;;;;;143734;590;46020;-53
2021/10/10 06:36:46;;;;;;;28.58;18.70;;;;;;;;;;143729;733;46022;-54
2021/10/10 06:39:13;;;;;;;27.85;20.48;;;;;;;;;;143727;580;46020;-54
2021/10/10 06:41:40;;;;;;;19.12;12.13;;;;;;;;;;143731;675;45021;-54
2021/10/10 06:44:08;;;;;;;16.00;8.05;;;;;;;;;;143734;580;45024;-54
2021/10/10 06:46:36;;;;;;;20.30;12.85;;;;;;;;;;143731;567;47020;-54
2021/10/10 06:49:03;;;;;;;24.87;14.80;;;;;;;;;;143731;583;46020;-54
2021/10/10 06:51:30;;;;;;;34.70;21.17;;;;;;;;;;143729;886;46012;-54
2021/10/10 06:53:57;;;;;;;36.65;21.95;;;;;;;;;;143734;593;46020;-54
2021/10/10 06:56:24;;;;;;;32.95;23.33;;;;;;;;;;143730;609;46020;-55
2021/10/10 06:58:51;;;;;;;32.35;21.08;;;;;;;;;;143732;748;46032;-54
2021/10/10 07:01:18;;;;;;;37.17;26.40;;;;;;;;;;143736;566;45022;-55
2021/10/10 07:03:45;;;;;;;28.45;19.23;;;;;;;;;;143738;668;45020;-54
2021/10/10 07:06:12;;;;;;;33.03;18.27;;;;;;;;;;143734;574;46023;-55
2021/10/10 07:08:39;;;;;;;28.75;20.62;;;;;;;;;;143732;738;46020;-54
2021/10/10 07:11:06;;;;;;;19.25;13.30;;;;;;;;;;143735;591;45026;-55
2021/10/10 07:13:33;;;;;;;20.33;14.45;;;;;;;;;;143738;586;45021;-54
2021/10/10 07:16:00;;;;;;;23.62;13.90;;;;;;;;;;143729;567;46022;-54
2021/10/10 07:18:31;;;;;;;20.33;14.10;;;;;;;;;;143731;572;46020;-54
2021/10/10 07:21:17;;;;;;;28.60;16.48;;;;;;;;;;143733;578;45029;-54
2021/10/10 07:24:52;;;;;;;17.70;10.70;;;;;;;;;;143735;565;46020;-54
2021/10/10 07:26:40;;;;;;;21.08;14.48;;;;;;;;;;143736;721;45024;-53
2021/10/10 07:29:07;;;;;;;21.77;13.25;;;;;;;;;;143732;586;46021;-54
2021/10/10 07:31:34;;;;;;;20.62;12.95;;;;;;;;;;143734;585;45021;-54
2021/10/10 07:34:01;;;;;;;16.30;10.05;;;;;;;;;;143736;683;46020;-55
2021/10/10 07:36:28;;;;;;;19.77;11.60;;;;;;;;;;143730;564;46021;-55
2021/10/10 07:38:55;;;;;;;23.55;12.35;;;;;;;;;;143724;580;48012;-55
2021/10/10 07:41:22;;;;;;;23.98;13.25;;;;;;;;;;143733;569;45021;-54
2021/10/10 07:43:49;;;;;;;20.25;12.20;;;;;;;;;;143738;569;46021;-54
2021/10/10 07:46:32;;;;;;;19.15;10.52;;;;;;;;;;143729;584;46022;-55
2021/10/10 07:48:59;;;;;;;14.65;9.13;;;;;;;;;;143732;585;46916;-55
2021/10/10 07:51:28;;;;;;;11.55;6.95;;;;;;;;;;143733;606;45021;-55
2021/10/10 07:53:56;;;;;;;16.27;10.02;;;;;;;;;;143733;706;46020;-54
2021/10/10 07:56:23;;;;;;;17.62;11.95;;;;;;;;;;143729;564;46042;-54
2021/10/10 07:58:50;;;;;;;15.43;10.75;;;;;;;;;;143726;577;46021;-54
2021/10/10 08:01:18;;;;;;;17.98;10.32;;;;;;;;;;143729;589;46012;-54
2021/10/10 08:03:45;;;;;;;12.55;7.87;;;;;;;;;;143733;579;46020;-54
2021/10/10 08:06:12;;;;;;;13.10;8.45;;;;;;;;;;143729;573;46023;-54
2021/10/10 08:08:39;;;;;;;12.02;8.35;;;;;;;;;;143728;586;46020;-54
2021/10/10 08:11:06;;;;;;;15.57;9.13;;;;;;;;;;143735;662;45020;-54
2021/10/10 08:13:33;;;;;;;12.73;8.55;;;;;;;;;;143734;623;45021;-54
2021/10/10 08:16:00;;;;;;;18.73;9.27;;;;;;;;;;143729;595;46022;-54
2021/10/10 08:18:27;;;;;;;11.43;8.15;;;;;;;;;;143731;595;46020;-54
2021/10/10 08:20:54;;;;;;;11.32;7.90;;;;;;;;;;143731;619;45021;-54
2021/10/10 08:23:21;;;;;;;13.80;7.15;;;;;;;;;;143732;580;46020;-54
2021/10/10 08:25:48;;;;;;;12.43;7.50;;;;;;;;;;143729;578;46022;-54
2021/10/10 08:28:15;;;;;;;11.82;7.72;;;;;;;;;;143728;639;46021;-54
2021/10/10 08:30:42;;;;;;;10.55;7.53;;;;;;;;;;143734;746;45020;-54
2021/10/10 08:33:09;;;;;;;13.93;6.55;;;;;;;;;;143734;619;46011;-53
2021/10/10 08:35:36;;;;;;;10.45;6.85;;;;;;;;;;143729;571;46023;-53
2021/10/10 08:38:03;;;;;;;7.97;5.70;;;;;;;;;;143730;594;46020;-54
2021/10/10 08:40:30;;;;;;;12.52;7.57;;;;;;;;;;143735;579;45020;-54
2021/10/10 08:43:00;;;;;;;11.77;6.80;;;;;;;;;;143734;629;46021;-53
2021/10/10 08:45:30;;;;;;;11.82;6.78;;;;;;;;;;143730;663;47022;-54
2021/10/10 08:47:58;;;;;;;9.73;6.10;;;;;;;;;;143732;851;46020;-54
2021/10/10 08:50:27;;;;;;;10.70;5.93;;;;;;;;;;143731;571;46013;-54
2021/10/10 08:52:59;;;;;;;10.73;7.30;;;;;;;;;;143734;600;46020;-54
2021/10/10 08:55:28;;;;;;;12.18;7.53;;;;;;;;;;143730;835;46050;-54
2021/10/10 08:57:56;;;;;;;8.63;6.10;;;;;;;;;;143732;567;46021;-54
2021/10/10 09:00:35;;;;;;;14.20;7.93;;;;;;;;;;143729;585;46012;-54
2021/10/10 09:03:11;;;;;;;10.93;6.90;;;;;;;;;;143738;592;45020;-54
2021/10/10 09:05:38;;;;;;;8.48;6.40;;;;;;;;;;143730;699;46023;-54
2021/10/10 09:08:05;;;;;;;13.62;6.55;;;;;;;;;;143730;656;46030;-54
2021/10/10 09:10:33;;;;;;;11.43;5.95;;;;;;;;;;143727;580;46012;-54
2021/10/10 09:13:10;;;;;;;11.88;7.25;;;;;;;;;;143730;569;46021;-55
2021/10/10 09:15:39;;;;;;;10.48;6.43;;;;;;;;;;143725;630;47020;-55
2021/10/10 09:18:08;;;;;;;12.35;6.60;;;;;;;;;;143724;576;46020;-54
2021/10/10 09:20:40;;;;;;;12.07;6.53;;;;;;;;;;143728;687;46013;-54
2021/10/10 09:23:29;;;;;;;16.10;6.12;;;;;;;;;;143731;593;46010;-55
2021/10/10 09:26:05;;;;;;;10.20;6.32;;;;;;;;;;143729;598;46022;-54
2021/10/10 09:28:34;;;;;;;10.15;6.68;;;;;;;;;;143727;585;46021;-54
2021/10/10 09:31:06;;;;;;;11.10;6.80;;;;;;;;;;143729;574;46012;-55
2021/10/10 09:33:58;;;;;;;8.02;6.20;;;;;;;;;;143731;614;46010;-56
2021/10/10 09:36:28;;;;;;;12.07;5.60;;;;;;;;;;143756;583;46020;-55
2021/10/10 09:39:04;;;;;;;8.20;5.32;;;;;;;;;;143754;605;45918;-56
2021/10/10 09:41:46;;;;;;;11.32;6.40;;;;;;;;;;143757;587;45012;-55
2021/10/10 09:44:23;;;;;;;10.60;5.95;;;;;;;;;;143759;585;45020;-55
2021/10/10 09:46:51;;;;;;;11.85;6.30;;;;;;;;;;143757;563;45022;-55
2021/10/10 09:49:30;;;;;;;9.73;5.90;;;;;;;;;;143754;584;45918;-55
2021/10/10 09:52:12;;;;;;;9.63;5.90;;;;;;;;;;143755;582;45012;-55
2021/10/10 09:54:56;;;;;;;11.57;6.18;;;;;;;;;;143760;654;45010;-55
2021/10/10 09:57:25;;;;;;;11.60;6.25;;;;;;;;;;143756;590;45023;-55
2021/10/10 09:59:56;;;;;;;10.27;6.50;;;;;;;;;;143751;585;46012;-56
2021/10/10 10:02:42;;;;;;;9.18;5.70;;;;;;;;;;143756;578;45012;-55
2021/10/10 10:05:09;;;;;;;8.40;5.85;;;;;;;;;;143757;612;45021;-56
2021/10/10 10:07:36;;;;;;;11.65;5.80;;;;;;;;;;143755;590;45022;-55
2021/10/10 10:10:04;;;;;;;11.90;5.90;;;;;;;;;;143753;584;45918;-55
2021/10/10 10:12:32;;;;;;;9.25;5.72;;;;;;;;;;143756;636;45012;-56
2021/10/10 10:15:02;;;;;;;9.48;5.93;;;;;;;;;;143759;592;45020;-55
2021/10/10 10:17:32;;;;;;;9.57;5.70;;;;;;;;;;143755;594;45022;-55
2021/10/10 10:20:02;;;;;;;11.95;6.32;;;;;;;;;;143755;573;45919;-55
2021/10/10 10:22:33;;;;;;;8.60;5.90;;;;;;;;;;143756;625;45012;-55
2021/10/10 10:25:00;;;;;;;10.00;5.90;;;;;;;;;;143759;649;45020;-55
2021/10/10 10:27:27;;;;;;;11.00;5.55;;;;;;;;;;143756;569;45022;-55
2021/10/10 10:29:56;;;;;;;9.25;5.75;;;;;;;;;;143753;569;45918;-54
2021/10/10 10:32:30;;;;;;;9.95;5.50;;;;;;;;;;143757;575;45012;-54
2021/10/10 10:35:21;;;;;;;11.40;5.80;;;;;;;;;;143746;577;46010;-54
2021/10/10 10:37:57;;;;;;;7.62;5.15;;;;;;;;;;143727;589;46024;-55
2021/10/10 10:40:34;;;;;;;7.40;4.82;;;;;;;;;;143724;593;46916;-55
2021/10/10 10:43:04;;;;;;;8.65;5.78;;;;;;;;;;143728;618;46018;-55
2021/10/10 10:45:42;;;;;;;9.73;6.78;;;;;;;;;;143732;564;45021;-54
2021/10/10 10:48:31;;;;;;;12.45;6.95;;;;;;;;;;143730;566;46049;-55
2021/10/10 10:51:25;;;;;;;9.45;5.80;;;;;;;;;;143727;708;46020;-55
2021/10/10 10:53:52;;;;;;;8.85;5.30;;;;;;;;;;143730;711;45020;-55
2021/10/10 10:56:33;;;;;;;11.75;6.78;;;;;;;;;;143730;689;46020;-54
2021/10/10 10:59:00;;;;;;;23.90;17.00;;;;;;;;;;143726;565;46023;-55
2021/10/10 11:01:47;;;;;;;14.20;8.50;;;;;;;;;;143725;623;46020;-55
2021/10/10 11:04:29;;;;;;;20.50;15.82;;;;;;;;;;143727;594;45021;-54
2021/10/10 11:07:08;;;;;;;12.10;9.55;;;;;;;;;;143732;609;45020;-55
2021/10/10 11:09:45;;;;;;;11.70;6.85;;;;;;;;;;143728;591;46022;-55
2021/10/10 11:12:12;;;;;;;12.48;8.27;;;;;;;;;;143727;609;46020;-55
2021/10/10 11:14:39;;;;;;;18.83;12.18;;;;;;;;;;143729;694;46012;-55
2021/10/10 11:17:10;;;;;;;8.15;6.03;;;;;;;;;;143731;715;45020;-55
2021/10/10 11:19:42;;;;;;;13.90;6.85;;;;;;;;;;143728;569;46023;-55
2021/10/10 11:22:10;;;;;;;10.90;7.53;;;;;;;;;;143725;602;46020;-55
2021/10/10 11:24:37;;;;;;;16.27;12.25;;;;;;;;;;143727;569;46012;-55
2021/10/10 11:27:11;;;;;;;10.45;7.18;;;;;;;;;;143732;584;45025;-55
2021/10/10 11:29:38;;;;;;;;;;;;;;;;;;143732;981;46022;-55
2021/10/10 11:32:05;;;;;;;13.60;8.90;;;;;;;;;;143736;595;46020;-55
2021/10/10 11:34:32;;;;;;;15.52;11.18;;;;;;;;;;143728;633;46012;-55
2021/10/10 11:36:59;;;;;;;16.27;10.70;;;;;;;;;;143730;605;46012;-56
2021/10/10 11:39:28;;;;;;;14.70;11.10;;;;;;;;;;143727;578;46022;-55
2021/10/10 11:42:06;;;;;;;8.30;5.43;;;;;;;;;;143727;570;46021;-55
2021/10/10 11:44:44;;;;;;;9.60;5.93;;;;;;;;;;143729;573;45020;-55
2021/10/10 11:47:24;;;;;;;12.85;9.02;;;;;;;;;;143734;574;45021;-55
2021/10/10 11:50:01;;;;;;;14.02;10.93;;;;;;;;;;143727;570;46023;-55
2021/10/10 11:52:51;;;;;;;11.27;7.78;;;;;;;;;;143727;603;46020;-55
2021/10/10 11:57:55;;;;;;;9.82;6.03;;;;;;;;;;143730;597;46020;-54
2021/10/10 12:00:36;;;;;;;13.50;8.55;;;;;;;;;;143727;593;47022;-55
2021/10/10 12:03:13;;;;;;;11.27;8.77;;;;;;;;;;143726;621;46021;-55
2021/10/10 12:05:42;;;;;;;10.23;7.00;;;;;;;;;;143728;591;46012;-55
2021/10/10 12:08:20;;;;;;;10.27;6.35;;;;;;;;;;143731;571;46012;-55
2021/10/10 12:10:48;;;;;;;7.40;5.00;;;;;;;;;;143727;564;46039;-55
2021/10/10 12:13:20;;;;;;;8.68;5.12;;;;;;;;;;143726;573;46033;-54
2021/10/10 12:16:00;;;;;;;9.05;5.65;;;;;;;;;;143726;650;46012;-54
2021/10/10 12:18:32;;;;;;;9.20;4.28;;;;;;;;;;143732;586;45021;-54
2021/10/10 12:21:21;;;;;;;6.53;4.18;;;;;;;;;;143727;593;46022;-54
2021/10/10 12:24:13;;;;;;;5.18;2.95;;;;;;;;;;143724;568;46918;-54
2021/10/10 12:26:52;;;;;;;7.10;4.40;;;;;;;;;;143727;564;46015;-54
2021/10/10 12:29:26;;;;;;;5.45;4.12;;;;;;;;;;143731;566;46020;-54
2021/10/10 12:31:53;;;;;;;;;;;;;;;;;;143732;982;46022;-54
2021/10/10 12:34:28;;;;;;;10.63;5.70;;;;;;;;;;143736;599;46021;-54
2021/10/10 12:36:55;;;;;;;8.27;3.85;;;;;;;;;;143727;595;46012;-54
2021/10/10 12:39:40;;;;;;;4.28;3.00;;;;;;;;;;143731;572;46020;-54
2021/10/10 12:42:07;;;;;;;6.20;3.42;;;;;;;;;;143727;619;46023;-54
2021/10/10 12:44:34;;;;;;;5.12;3.90;;;;;;;;;;143724;622;46918;-55
2021/10/10 12:47:01;;;;;;;8.50;6.12;;;;;;;;;;143727;584;46012;-54
2021/10/10 12:49:31;;;;;;;7.53;4.37;;;;;;;;;;143731;639;46021;-54
2021/10/10 12:52:02;;;;;;;7.80;4.30;;;;;;;;;;143730;608;46022;-54
2021/10/10 12:54:30;;;;;;;10.00;5.60;;;;;;;;;;143726;588;46021;-54
2021/10/10 12:57:04;;;;;;;9.65;4.00;;;;;;;;;;143732;586;45021;-54
2021/10/10 12:59:32;;;;;;;;;;;;;;;;;;143736;982;46020;-54
2021/10/10 13:01:59;;;;;;;6.87;3.83;;;;;;;;;;143739;590;46022;-54
2021/10/10 13:04:27;;;;;;;8.55;3.80;;;;;;;;;;143727;574;46020;-54
2021/10/10 13:06:55;;;;;;;7.00;4.45;;;;;;;;;;143727;592;46020;-54
2021/10/10 13:09:24;;;;;;;7.78;4.20;;;;;;;;;;143733;585;45021;-54
2021/10/10 13:11:53;;;;;;;8.90;4.93;;;;;;;;;;143727;680;46023;-54
2021/10/10 13:14:20;;;;;;;8.98;5.28;;;;;;;;;;143724;573;46021;-54
2021/10/10 13:16:48;;;;;;;8.18;4.53;;;;;;;;;;143727;614;46012;-54
2021/10/10 13:19:15;;;;;;;16.23;5.00;;;;;;;;;;143726;604;47012;-54
2021/10/10 13:21:43;;;;;;;12.13;4.75;;;;;;;;;;143728;570;46022;-54
2021/10/10 13:24:10;;;;;;;8.57;3.50;;;;;;;;;;143727;570;46020;-54
2021/10/10 13:26:37;;;;;;;4.85;3.33;;;;;;;;;;143729;578;45021;-54
2021/10/10 13:29:06;;;;;;;6.95;4.05;;;;;;;;;;143732;566;45020;-54
2021/10/10 13:31:34;;;;;;;4.37;3.03;;;;;;;;;;143729;586;46022;-54
2021/10/10 13:34:02;;;;;;;8.15;3.85;;;;;;;;;;143724;604;46021;-54
2021/10/10 13:36:29;;;;;;;5.65;3.20;;;;;;;;;;143727;566;46012;-54
2021/10/10 13:38:57;;;;;;;5.82;3.47;;;;;;;;;;143732;603;45029;-54
2021/10/10 13:41:25;;;;;;;4.22;2.85;;;;;;;;;;143727;606;46023;-54
2021/10/10 13:43:52;;;;;;;6.18;3.30;;;;;;;;;;143723;629;46020;-54
2021/10/10 13:46:19;;;;;;;6.78;3.60;;;;;;;;;;143729;619;45021;-54
2021/10/10 13:48:46;;;;;;;14.05;3.90;;;;;;;;;;143733;586;45031;-54
2021/10/10 13:51:13;;;;;;;6.30;3.47;;;;;;;;;;143727;564;46048;-54
2021/10/10 13:53:40;;;;;;;5.72;3.28;;;;;;;;;;143726;594;46020;-54
2021/10/10 13:56:08;;;;;;;6.85;2.83;;;;;;;;;;143728;597;45021;-54
2021/10/10 13:58:35;;;;;;;5.53;3.35;;;;;;;;;;143731;582;46020;-54
2021/10/10 14:01:02;;;;;;;3.78;2.55;;;;;;;;;;143728;651;46022;-54
2021/10/10 14:03:30;;;;;;;4.60;3.00;;;;;;;;;;143727;602;46020;-54
2021/10/10 14:05:58;;;;;;;10.70;3.35;;;;;;;;;;143727;569;46012;-54
2021/10/10 14:08:25;;;;;;;4.50;2.67;;;;;;;;;;143732;619;45027;-54
2021/10/10 14:10:54;;;;;;;4.75;3.42;;;;;;;;;;143727;618;46042;-54
2021/10/10 14:13:22;;;;;;;5.70;2.95;;;;;;;;;;143727;598;46020;-54
2021/10/10 14:15:51;;;;;;;5.45;3.05;;;;;;;;;;143730;600;45020;-54
2021/10/10 14:18:19;;;;;;;4.50;2.67;;;;;;;;;;143732;564;45030;-54
2021/10/10 14:20:47;;;;;;;4.30;3.20;;;;;;;;;;143727;569;46022;-54
2021/10/10 14:23:15;;;;;;;4.25;2.47;;;;;;;;;;143725;565;46020;-54
2021/10/10 14:25:43;;;;;;;6.43;2.60;;;;;;;;;;143731;571;45021;-54
2021/10/10 14:28:10;;;;;;;3.97;2.42;;;;;;;;;;143732;585;45020;-54
2021/10/10 14:30:38;;;;;;;3.25;2.20;;;;;;;;;;143727;620;46046;-54
2021/10/10 14:33:05;;;;;;;3.20;2.28;;;;;;;;;;143725;611;46021;-54
2021/10/10 14:35:33;;;;;;;4.53;2.90;;;;;;;;;;143730;580;45021;-54
2021/10/10 14:38:01;;;;;;;4.90;2.22;;;;;;;;;;143728;633;46020;-54
2021/10/10 14:40:28;;;;;;;5.15;2.12;;;;;;;;;;143727;577;46023;-55
2021/10/10 14:43:06;;;;;;;5.20;2.30;;;;;;;;;;143727;621;46020;-54
2021/10/10 14:45:44;;;;;;;4.87;2.12;;;;;;;;;;143729;635;45020;-55
2021/10/10 14:48:13;;;;;;;4.72;2.17;;;;;;;;;;143731;612;45021;-54
2021/10/10 14:50:42;;;;;;;3.10;2.47;;;;;;;;;;143727;582;46022;-55